Terminal Aerodrome Forecast
Issued by NWS

Home | Current Version | Previous Version | Text Only | Print | Product List | Glossary On
Versions: 1 2 3 4 5 6 7 8 9 10 11 12 13 14 15 16 17 18 19 20 21 22 23
150
FTUS43 KDLH 271127
TAFHYR
TAF
KHYR 271127Z 2712/2812 VRB03KT 6SM -SHRA SCT040 OVC060
      TEMPO 2712/2714 5SM TSRA BR BKN035CB
     FM271800 VRB04KT P6SM VCSH SCT030 BKN050
      TEMPO 2719/2723 5SM TSRA BR BKN030CB
     FM280000 05003KT 6SM BR SCT020 BKN050
     FM280500 VRB02KT 3SM BR SCT050
      TEMPO 2808/2812 3/4SM BR SCT004=

USA.gov is the U.S. government's official web portal to all federal, state and local government web resources and services.